Time;durP1;ratioP1;P1;durP2;ratioP2;P2;SDS_P1;SDS_P2;PMS_P1;PMS_P2;Temp;Humidity;BMP_temperature;BMP_pressure;BME280_temperature;BME280_humidity;BME280_pressure;Samples;Min_cycle;Max_cycle;Signal;HPM_P1;HPM_P2
2023/04/18 00:01:44;;;;;;;12.13;6.53;;;7.40;99.90;;;;;;5076717;28;20040;-40
2023/04/18 00:04:10;;;;;;;11.33;6.90;;;7.30;99.90;;;;;;5076698;28;20479;-39
2023/04/18 00:06:36;;;;;;;13.27;6.57;;;7.30;99.90;;;;;;5076515;28;20488;-40
2023/04/18 00:09:02;;;;;;;10.77;6.10;;;7.30;99.90;;;;;;5076559;28;20275;-40
2023/04/18 00:11:29;;;;;;;11.45;6.07;;;7.30;99.90;;;;;;5076513;28;20040;-39
2023/04/18 00:13:56;;;;;;;10.75;6.00;;;7.20;99.90;;;;;;5075517;28;20134;-40
2023/04/18 00:16:22;;;;;;;12.90;6.63;;;7.20;99.90;;;;;;5076423;28;20045;-40
2023/04/18 00:18:48;;;;;;;10.95;5.85;;;7.20;99.90;;;;;;5076496;28;20044;-40
2023/04/18 00:21:15;;;;;;;11.70;5.67;;;7.20;99.90;;;;;;5076462;28;20434;-40
2023/04/18 00:23:42;;;;;;;12.70;5.68;;;7.10;99.90;;;;;;5075115;28;20056;-39
2023/04/18 00:26:07;;;;;;;11.10;6.57;;;7.20;99.90;;;;;;5076455;28;20163;-40
2023/04/18 00:28:33;;;;;;;11.13;5.67;;;7.20;99.90;;;;;;5076378;28;20495;-39
2023/04/18 00:30:59;;;;;;;9.70;5.27;;;7.10;99.90;;;;;;5076192;28;20044;-40
2023/04/18 00:33:25;;;;;;;11.43;5.60;;;7.10;99.90;;;;;;5076126;28;20056;-40
2023/04/18 00:35:51;;;;;;;9.73;5.50;;;7.10;99.90;;;;;;5076069;28;20138;-39
2023/04/18 00:38:16;;;;;;;9.87;5.40;;;7.10;99.90;;;;;;5074944;28;20056;-40
2023/04/18 00:40:42;;;;;;;10.70;5.10;;;7.00;99.90;;;;;;5076318;28;20131;-40
2023/04/18 00:43:08;;;;;;;10.13;5.63;;;7.00;99.90;;;;;;5076387;28;20049;-39
2023/04/18 00:45:34;;;;;;;9.90;5.00;;;7.00;99.90;;;;;;5076205;28;20051;-40
2023/04/18 00:47:59;;;;;;;10.30;4.83;;;7.00;99.90;;;;;;5074949;28;20071;-40
2023/04/18 00:50:25;;;;;;;9.80;5.17;;;7.00;99.90;;;;;;5076017;28;20166;-40
2023/04/18 00:52:53;;;;;;;9.23;5.35;;;7.00;99.90;;;;;;5075786;28;20045;-40
2023/04/18 00:55:20;;;;;;;8.95;5.05;;;7.00;99.90;;;;;;5075633;28;20391;-40
2023/04/18 00:57:45;;;;;;;;;;;7.00;99.90;;;;;;5076165;28;20056;-40
2023/04/18 01:00:12;;;;;;;9.20;5.13;;;7.00;99.90;;;;;;5075889;28;20256;-39
2023/04/18 01:02:38;;;;;;;9.48;4.75;;;7.00;99.90;;;;;;5075747;28;20463;-39
2023/04/18 01:05:05;;;;;;;10.55;4.80;;;6.90;99.90;;;;;;5075630;28;20053;-40
2023/04/18 01:07:32;;;;;;;9.25;5.10;;;6.90;99.90;;;;;;5074682;28;20048;-40
2023/04/18 01:09:59;;;;;;;10.25;4.97;;;6.90;99.90;;;;;;5075221;28;20049;-40
2023/04/18 01:12:24;;;;;;;11.07;5.20;;;6.90;99.90;;;;;;5074663;28;20044;-39
2023/04/18 01:14:50;;;;;;;8.13;4.60;;;6.90;99.90;;;;;;5075579;28;20047;-40
2023/04/18 01:17:18;;;;;;;9.77;4.93;;;6.80;99.90;;;;;;5075251;28;20044;-40
2023/04/18 01:19:45;;;;;;;9.10;4.85;;;6.80;99.90;;;;;;5075160;28;20048;-41
2023/04/18 01:22:13;;;;;;;11.27;5.22;;;6.80;99.90;;;;;;5075031;28;20066;-39
2023/04/18 01:24:39;;;;;;;8.93;4.97;;;6.80;99.90;;;;;;5075229;28;20094;-39
2023/04/18 01:27:05;;;;;;;8.00;4.15;;;6.80;99.90;;;;;;5075122;28;20044;-40
2023/04/18 01:29:31;;;;;;;7.53;3.87;;;6.80;99.90;;;;;;5075019;28;20089;-39
2023/04/18 01:31:57;;;;;;;9.13;4.93;;;6.80;99.90;;;;;;5075027;28;20051;-40
2023/04/18 01:34:22;;;;;;;9.70;4.23;;;6.70;99.90;;;;;;5073606;28;20080;-40
2023/04/18 01:36:48;;;;;;;7.43;4.30;;;6.80;99.90;;;;;;5074983;28;20154;-39
2023/04/18 01:39:14;;;;;;;9.20;4.33;;;6.70;99.90;;;;;;5074983;28;20049;-39
2023/04/18 01:41:40;;;;;;;7.77;4.03;;;6.70;99.90;;;;;;5074925;28;20044;-39
2023/04/18 01:44:06;;;;;;;6.80;4.13;;;6.70;99.90;;;;;;5074915;28;20118;-39
2023/04/18 01:46:32;;;;;;;7.60;3.57;;;6.70;99.90;;;;;;5074831;28;20049;-39
2023/04/18 01:48:58;;;;;;;7.57;3.47;;;6.70;99.90;;;;;;5074589;28;20040;-40
2023/04/18 01:51:25;;;;;;;6.60;3.70;;;6.60;99.90;;;;;;5073281;28;20479;-39
2023/04/18 01:53:50;;;;;;;;;;;6.60;99.90;;;;;;5074282;28;20055;-39
2023/04/18 01:56:16;;;;;;;7.18;3.65;;;6.60;99.90;;;;;;5074609;28;19920;-39
2023/04/18 01:58:42;;;;;;;8.37;4.03;;;6.60;99.90;;;;;;5074569;28;20483;-40
2023/04/18 02:01:08;;;;;;;8.10;3.57;;;6.60;99.90;;;;;;5074320;28;20037;-39
2023/04/18 02:03:33;;;;;;;7.67;3.83;;;6.50;99.90;;;;;;5074263;28;20399;-40
2023/04/18 02:06:00;;;;;;;8.87;4.00;;;6.60;99.90;;;;;;5074175;28;20048;-40
2023/04/18 02:08:26;;;;;;;6.97;3.58;;;6.50;99.90;;;;;;5074777;28;20153;-40
2023/04/18 02:10:52;;;;;;;6.90;3.43;;;6.50;99.90;;;;;;5074222;28;20079;-40
2023/04/18 02:13:17;;;;;;;7.23;3.50;;;6.60;99.90;;;;;;5073677;28;20055;-39
2023/04/18 02:15:46;;;;;;;9.03;3.73;;;6.60;99.90;;;;;;5074110;28;20053;-39
2023/04/18 02:18:12;;;;;;;8.00;3.75;;;6.60;99.90;;;;;;5073920;28;20040;-40
2023/04/18 02:20:38;;;;;;;6.30;3.33;;;6.60;99.90;;;;;;5072885;28;20046;-39
2023/04/18 02:23:04;;;;;;;8.87;4.03;;;6.60;99.90;;;;;;5074132;28;20044;-40
2023/04/18 02:25:30;;;;;;;7.63;4.03;;;6.60;99.90;;;;;;5074075;28;20047;-40
2023/04/18 02:27:56;;;;;;;7.20;3.30;;;6.60;99.90;;;;;;5072949;28;20049;-40
2023/04/18 02:30:23;;;;;;;7.32;3.38;;;6.70;99.90;;;;;;5074101;28;20128;-39
2023/04/18 02:32:50;;;;;;;;;;;6.70;99.90;;;;;;5074001;28;20143;-40
2023/04/18 02:35:17;;;;;;;6.70;3.47;;;6.70;99.90;;;;;;5074184;28;19920;-40
2023/04/18 02:37:42;;;;;;;7.28;3.33;;;6.80;99.90;;;;;;5073063;28;20041;-40
2023/04/18 02:40:08;;;;;;;6.93;3.23;;;6.80;99.90;;;;;;5073884;28;20097;-40
2023/04/18 02:42:35;;;;;;;6.72;2.92;;;6.80;99.90;;;;;;5072936;28;20037;-40
2023/04/18 02:45:01;;;;;;;7.22;3.40;;;6.80;99.90;;;;;;5072666;28;20045;-40
2023/04/18 02:47:26;;;;;;;7.43;3.13;;;6.90;99.90;;;;;;5073691;28;20071;-39
2023/04/18 02:49:52;;;;;;;6.93;3.33;;;6.90;99.90;;;;;;5074050;28;20139;-39
2023/04/18 02:52:17;;;;;;;7.30;3.10;;;6.90;99.90;;;;;;5073876;28;20476;-40
2023/04/18 02:54:43;;;;;;;9.80;4.30;;;6.90;99.90;;;;;;5072768;28;20048;-40
2023/04/18 02:57:09;;;;;;;8.57;3.43;;;7.00;99.90;;;;;;5073670;28;20044;-39
2023/04/18 02:59:34;;;;;;;7.93;4.00;;;7.00;99.90;;;;;;5072470;28;20059;-40
2023/04/18 03:02:00;;;;;;;7.57;3.83;;;7.00;99.90;;;;;;5073500;28;20045;-40
2023/04/18 03:04:26;;;;;;;7.47;3.40;;;7.00;99.90;;;;;;5073330;28;20044;-39
2023/04/18 03:06:52;;;;;;;6.67;3.07;;;7.00;99.90;;;;;;5072718;28;20052;-40
2023/04/18 03:09:18;;;;;;;8.03;3.63;;;7.00;99.90;;;;;;5073816;28;20381;-39
2023/04/18 03:11:43;;;;;;;6.23;2.83;;;7.10;99.90;;;;;;5073474;28;20716;-39
2023/04/18 03:14:09;;;;;;;6.73;3.30;;;7.10;99.90;;;;;;5055820;28;20044;-39
2023/04/18 03:16:35;;;;;;;6.97;3.47;;;7.10;99.90;;;;;;5073489;28;20044;-40
2023/04/18 03:19:01;;;;;;;7.87;3.03;;;7.10;99.90;;;;;;5073266;28;20063;-40
2023/04/18 03:21:27;;;;;;;6.53;3.00;;;7.10;99.90;;;;;;5072551;28;20080;-40
2023/04/18 03:23:52;;;;;;;6.07;3.27;;;7.10;99.90;;;;;;5073429;28;20076;-40
2023/04/18 03:26:18;;;;;;;6.50;3.07;;;7.10;99.90;;;;;;5073436;28;20048;-39
2023/04/18 03:28:44;;;;;;;7.40;3.57;;;7.10;99.90;;;;;;5073334;28;20043;-39
2023/04/18 03:31:10;;;;;;;7.13;3.30;;;7.10;99.90;;;;;;5073752;28;20395;-40
2023/04/18 03:33:37;;;;;;;8.63;3.15;;;7.10;99.90;;;;;;5076907;28;20143;-39
2023/04/18 03:36:04;;;;;;;6.20;3.03;;;7.10;99.90;;;;;;5077387;28;20403;-39
2023/04/18 03:38:30;;;;;;;7.97;3.45;;;7.10;99.90;;;;;;5077235;28;20086;-40
2023/04/18 03:40:56;;;;;;;7.10;3.00;;;7.10;99.90;;;;;;5077154;28;20169;-40
2023/04/18 03:43:21;;;;;;;7.33;3.40;;;7.10;99.90;;;;;;5077070;28;20051;-39
2023/04/18 03:45:47;;;;;;;5.57;2.83;;;7.10;99.90;;;;;;5076036;28;20044;-40
2023/04/18 03:48:13;;;;;;;7.37;3.87;;;7.10;99.90;;;;;;5077028;28;20087;-40
2023/04/18 03:50:39;;;;;;;6.55;2.85;;;7.10;99.90;;;;;;5076962;28;20389;-40
2023/04/18 03:53:05;;;;;;;8.23;4.03;;;7.10;99.90;;;;;;5077338;28;20051;-39
2023/04/18 03:55:30;;;;;;;7.50;3.63;;;7.10;99.90;;;;;;5076747;28;20055;-39
2023/04/18 03:57:58;;;;;;;7.30;3.23;;;7.10;99.90;;;;;;5076864;28;20082;-39
2023/04/18 04:00:24;;;;;;;9.10;3.60;;;7.10;99.90;;;;;;5076882;28;20075;-40
2023/04/18 04:02:50;;;;;;;6.18;3.10;;;7.10;99.90;;;;;;5076541;28;20136;-44
2023/04/18 04:05:15;;;;;;;7.33;3.57;;;7.10;99.90;;;;;;5076631;28;20127;-40
2023/04/18 04:07:41;;;;;;;8.43;3.97;;;7.10;99.90;;;;;;5075367;28;20044;-39
2023/04/18 04:10:07;;;;;;;8.30;3.70;;;7.10;99.90;;;;;;5076597;28;20097;-39
2023/04/18 04:12:33;;;;;;;7.93;3.67;;;7.10;99.90;;;;;;5076413;28;20047;-40
2023/04/18 04:14:59;;;;;;;5.97;3.23;;;7.10;99.90;;;;;;5076469;28;20048;-40
2023/04/18 04:17:25;;;;;;;8.45;3.50;;;7.10;99.90;;;;;;5077062;28;20048;-39
2023/04/18 04:19:51;;;;;;;8.47;4.33;;;7.10;99.90;;;;;;5076590;28;20399;-39
2023/04/18 04:22:16;;;;;;;8.93;3.60;;;7.10;99.90;;;;;;5058852;28;20105;-39
2023/04/18 04:24:43;;;;;;;8.90;4.03;;;7.10;99.90;;;;;;5076346;28;20041;-39
2023/04/18 04:27:09;;;;;;;8.68;4.03;;;7.10;99.90;;;;;;5075381;28;20055;-39
2023/04/18 04:29:37;;;;;;;;;;;7.10;99.90;;;;;;5076528;28;20049;-39
2023/04/18 04:32:04;;;;;;;7.97;3.97;;;7.20;99.90;;;;;;5076036;28;19921;-39
2023/04/18 04:34:30;;;;;;;7.70;3.88;;;7.10;99.90;;;;;;5076452;28;20491;-40
2023/04/18 04:36:56;;;;;;;8.13;4.53;;;7.10;99.90;;;;;;5076153;28;20049;-39
2023/04/18 04:39:21;;;;;;;8.40;4.00;;;7.20;99.90;;;;;;5076448;28;20080;-40
2023/04/18 04:41:48;;;;;;;8.43;4.17;;;7.20;99.90;;;;;;5074825;28;20040;-40
2023/04/18 04:44:16;;;;;;;8.10;4.40;;;7.20;99.90;;;;;;5074447;28;20071;-40
2023/04/18 04:46:43;;;;;;;8.50;4.35;;;7.20;99.90;;;;;;5075946;28;20123;-39
2023/04/18 04:49:10;;;;;;;10.40;4.68;;;7.20;99.90;;;;;;5076237;28;20052;-40
2023/04/18 04:51:36;;;;;;;8.93;4.32;;;7.20;99.90;;;;;;5076026;28;20044;-40
2023/04/18 04:54:02;;;;;;;9.20;4.90;;;7.20;99.90;;;;;;5075865;28;20040;-41
2023/04/18 04:56:28;;;;;;;9.95;4.53;;;7.20;99.90;;;;;;5074827;28;20056;-39
2023/04/18 04:58:55;;;;;;;9.57;4.53;;;7.20;99.90;;;;;;5075470;28;20049;-41
2023/04/18 05:01:21;;;;;;;8.18;4.00;;;7.30;99.90;;;;;;5075887;28;20033;-39
2023/04/18 05:03:48;;;;;;;8.18;4.38;;;7.30;99.90;;;;;;5075515;28;20127;-40
2023/04/18 05:06:19;;;;;;;8.80;4.43;;;7.30;99.90;;;;;;5075308;28;20548;-40
2023/04/18 05:08:50;;;;;;;10.02;5.22;;;7.30;99.90;;;;;;5075622;28;20048;-40
2023/04/18 05:11:17;;;;;;;8.48;4.78;;;7.30;99.90;;;;;;5075340;28;20052;-40
2023/04/18 05:13:42;;;;;;;9.82;4.38;;;7.40;99.90;;;;;;5075423;28;20040;-40
2023/04/18 05:16:08;;;;;;;9.23;4.57;;;7.50;99.90;;;;;;5076016;28;20408;-40
2023/04/18 05:18:37;;;;;;;9.63;4.47;;;7.50;99.90;;;;;;5075459;28;20127;-40
2023/04/18 05:21:04;;;;;;;9.32;4.85;;;7.50;99.90;;;;;;5075312;28;20048;-40
2023/04/18 05:23:30;;;;;;;8.23;4.45;;;7.50;99.90;;;;;;5075071;28;20483;-40
2023/04/18 05:25:56;;;;;;;9.63;4.43;;;7.50;99.90;;;;;;5074948;28;20056;-40
2023/04/18 05:28:24;;;;;;;8.30;4.60;;;7.50;99.90;;;;;;5075638;28;20143;-40
2023/04/18 05:30:50;;;;;;;10.10;5.15;;;7.50;99.90;;;;;;5075344;28;20407;-40
2023/04/18 05:33:16;;;;;;;8.88;4.78;;;7.50;99.90;;;;;;5075112;28;20056;-40
2023/04/18 05:35:42;;;;;;;9.80;4.50;;;7.50;99.90;;;;;;5074950;28;20403;-40
2023/04/18 05:38:07;;;;;;;8.90;4.00;;;7.50;99.90;;;;;;5073967;28;20080;-40
2023/04/18 05:40:33;;;;;;;12.67;5.27;;;7.50;99.90;;;;;;5073467;28;20055;-40
2023/04/18 05:42:59;;;;;;;7.85;4.45;;;7.50;99.90;;;;;;5074907;28;20083;-40
2023/04/18 05:45:25;;;;;;;8.85;4.47;;;7.60;99.90;;;;;;5073960;28;20076;-40
2023/04/18 05:47:52;;;;;;;8.57;4.30;;;7.60;99.90;;;;;;5073907;28;20056;-40
2023/04/18 05:50:18;;;;;;;9.45;4.97;;;7.60;99.90;;;;;;5074643;28;20045;-40
2023/04/18 05:52:44;;;;;;;9.43;4.13;;;7.60;99.90;;;;;;5073247;28;20159;-40
2023/04/18 05:55:09;;;;;;;8.17;4.53;;;7.70;99.90;;;;;;5056600;28;20090;-41
2023/04/18 05:57:35;;;;;;;11.63;4.93;;;7.80;99.90;;;;;;5040650;28;20113;-41
2023/04/18 06:00:01;;;;;;;9.13;5.03;;;7.80;99.90;;;;;;5057120;28;20041;-40
2023/04/18 06:02:27;;;;;;;9.03;4.33;;;8.00;99.90;;;;;;5090406;28;20048;-40
2023/04/18 06:04:52;;;;;;;7.80;4.17;;;8.10;99.90;;;;;;5056855;28;20041;-41
2023/04/18 06:07:18;;;;;;;7.63;4.30;;;8.20;99.90;;;;;;5056641;28;20055;-41
2023/04/18 06:09:44;;;;;;;8.70;4.57;;;8.30;99.90;;;;;;5073379;28;20048;-41
2023/04/18 06:12:09;;;;;;;9.57;4.40;;;8.50;99.90;;;;;;5056409;28;20468;-41
2023/04/18 06:14:35;;;;;;;9.30;4.30;;;8.60;99.90;;;;;;5056534;28;20051;-41
2023/04/18 06:17:01;;;;;;;8.03;4.10;;;8.50;99.90;;;;;;5056693;28;20161;-41
2023/04/18 06:19:26;;;;;;;8.00;4.00;;;8.40;99.90;;;;;;5056484;28;20204;-41
2023/04/18 06:21:52;;;;;;;7.60;3.90;;;8.40;99.90;;;;;;5056465;28;20491;-41
2023/04/18 06:24:18;;;;;;;9.87;4.50;;;8.40;99.90;;;;;;5056335;28;20048;-42
2023/04/18 06:26:43;;;;;;;8.93;4.67;;;8.40;99.90;;;;;;5073776;28;20056;-41
2023/04/18 06:29:10;;;;;;;7.10;4.17;;;8.50;99.90;;;;;;5072820;28;20431;-41
2023/04/18 06:31:35;;;;;;;7.40;4.13;;;8.80;99.90;;;;;;5072924;28;20041;-41
2023/04/18 06:34:02;;;;;;;;;;;9.10;99.90;;;;;;5074006;28;20495;-41
2023/04/18 06:36:28;;;;;;;9.70;4.38;;;9.70;99.90;;;;;;5056280;28;19963;-42
2023/04/18 06:38:53;;;;;;;8.07;4.57;;;10.30;99.90;;;;;;5073056;28;20040;-43
2023/04/18 06:41:19;;;;;;;7.40;4.20;;;10.80;99.90;;;;;;5072678;28;20048;-41
2023/04/18 06:43:45;;;;;;;10.70;3.73;;;11.20;99.90;;;;;;5056204;28;20071;-41
2023/04/18 06:46:10;;;;;;;8.53;4.20;;;11.50;99.90;;;;;;5073013;28;20048;-42
2023/04/18 06:48:36;;;;;;;8.63;5.30;;;11.80;99.90;;;;;;5056078;28;20052;-41
2023/04/18 06:51:02;;;;;;;8.17;4.47;;;11.90;99.90;;;;;;5039548;28;20041;-41
2023/04/18 06:53:27;;;;;;;7.90;3.88;;;11.90;99.90;;;;;;5055955;28;20056;-41
2023/04/18 06:55:53;;;;;;;7.70;4.57;;;11.90;99.90;;;;;;5056098;28;20083;-41
2023/04/18 06:58:19;;;;;;;7.47;4.20;;;11.70;99.90;;;;;;5072797;28;20094;-41
2023/04/18 07:00:47;;;;;;;7.80;4.13;;;11.70;99.90;;;;;;5072701;28;20113;-41
2023/04/18 07:03:13;;;;;;;7.88;4.82;;;11.60;99.90;;;;;;5056127;28;20044;-41
2023/04/18 07:05:39;;;;;;;8.67;4.90;;;11.40;99.90;;;;;;5055416;28;20056;-40
2023/04/18 07:08:05;;;;;;;7.82;4.00;;;11.20;99.90;;;;;;5072299;28;20060;-41
2023/04/18 07:10:31;;;;;;;8.32;4.50;;;11.10;99.90;;;;;;5040013;28;20056;-41
2023/04/18 07:12:56;;;;;;;7.73;3.97;;;11.00;99.90;;;;;;5073539;28;20041;-41
2023/04/18 07:15:22;;;;;;;9.07;4.27;;;10.90;99.90;;;;;;5073564;28;20483;-40
2023/04/18 07:17:48;;;;;;;9.20;4.23;;;10.90;99.90;;;;;;5055724;28;20098;-40
2023/04/18 07:20:13;;;;;;;8.97;4.43;;;10.80;99.90;;;;;;5073631;28;20061;-43
2023/04/18 07:22:40;;;;;;;8.70;4.63;;;10.80;99.90;;;;;;5073363;28;20044;-42
2023/04/18 07:25:06;;;;;;;8.55;4.30;;;10.80;99.90;;;;;;5073272;28;20088;-42
2023/04/18 07:27:34;;;;;;;8.38;4.70;;;10.90;99.90;;;;;;5072631;28;20037;-42
2023/04/18 07:30:00;;;;;;;9.55;4.50;;;10.90;99.90;;;;;;5072404;28;20041;-41
2023/04/18 07:32:26;;;;;;;10.10;4.60;;;10.90;99.90;;;;;;5073150;28;20395;-42
2023/04/18 07:34:52;;;;;;;8.50;4.77;;;10.80;99.90;;;;;;5073033;28;20088;-42
2023/04/18 07:37:20;;;;;;;9.60;4.78;;;10.80;99.90;;;;;;5072227;28;20552;-40
2023/04/18 07:39:46;;;;;;;9.00;4.28;;;10.70;99.90;;;;;;5073261;28;20066;-42
2023/04/18 07:42:12;;;;;;;7.22;3.78;;;10.70;99.90;;;;;;5073183;28;20048;-42
2023/04/18 07:44:38;;;;;;;8.57;3.87;;;10.70;99.90;;;;;;5071934;28;20040;-41
2023/04/18 07:47:08;;;;;;;9.80;4.75;;;10.70;99.90;;;;;;5073066;28;20110;-42
2023/04/18 07:49:34;;;;;;;8.60;4.65;;;10.50;99.90;;;;;;5073336;28;20041;-42
2023/04/18 07:52:00;;;;;;;11.30;4.60;;;10.50;99.90;;;;;;5073030;28;20044;-42
2023/04/18 07:54:25;;;;;;;7.33;4.27;;;10.40;99.90;;;;;;5072423;28;20048;-42
2023/04/18 07:56:51;;;;;;;9.27;4.30;;;10.40;99.90;;;;;;5072242;28;20048;-42
2023/04/18 07:59:17;;;;;;;8.67;3.80;;;10.30;99.90;;;;;;5055239;28;20052;-42
2023/04/18 08:01:43;;;;;;;9.37;4.80;;;10.30;99.90;;;;;;5072999;28;20052;-42
2023/04/18 08:04:08;;;;;;;8.87;4.73;;;10.20;99.90;;;;;;5072040;28;20052;-42
2023/04/18 08:06:34;;;;;;;10.30;4.57;;;10.20;99.90;;;;;;5088656;28;20055;-42
2023/04/18 08:09:03;;;;;;;9.20;4.43;;;10.20;99.90;;;;;;5073131;28;20048;-42
2023/04/18 08:11:29;;;;;;;8.80;4.10;;;10.20;99.90;;;;;;5072935;28;20049;-42
2023/04/18 08:13:55;;;;;;;7.70;4.35;;;10.20;99.90;;;;;;5071938;28;20044;-42
2023/04/18 08:16:20;;;;;;;9.47;4.77;;;10.20;99.90;;;;;;5072880;28;20047;-42
2023/04/18 08:18:46;;;;;;;8.73;3.73;;;10.30;99.90;;;;;;5075772;28;20048;-42
2023/04/18 08:21:12;;;;;;;8.20;4.43;;;10.40;99.90;;;;;;5075225;28;20040;-42
2023/04/18 08:23:37;;;;;;;7.63;4.40;;;10.40;99.90;;;;;;5076505;28;20052;-42
2023/04/18 08:26:03;;;;;;;9.07;4.33;;;10.50;99.90;;;;;;5076394;28;20048;-42
2023/04/18 08:28:29;;;;;;;7.57;3.73;;;10.50;99.90;;;;;;5075434;28;20036;-43
2023/04/18 08:30:55;;;;;;;7.97;4.00;;;10.50;99.90;;;;;;5076220;28;20079;-43
2023/04/18 08:33:22;;;;;;;7.43;3.97;;;10.50;99.90;;;;;;5076315;28;20065;-42
2023/04/18 08:35:49;;;;;;;7.50;3.95;;;10.60;99.90;;;;;;5058538;28;20060;-42
2023/04/18 08:38:17;;;;;;;10.00;4.32;;;10.60;99.90;;;;;;5076212;28;20526;-43
2023/04/18 08:40:43;;;;;;;6.97;3.45;;;10.60;99.90;;;;;;5076112;28;20045;-42
2023/04/18 08:43:13;;;;;;;8.20;3.35;;;10.60;99.90;;;;;;5075217;28;20067;-43
2023/04/18 08:45:42;;;;;;;8.10;4.22;;;10.70;99.90;;;;;;5075118;28;20041;-43
2023/04/18 08:48:15;;;;;;;6.57;3.30;;;10.70;99.90;;;;;;5076017;28;20385;-42
2023/04/18 08:50:41;;;;;;;8.07;4.00;;;10.70;99.90;;;;;;5075079;28;20048;-43
2023/04/18 08:53:07;;;;;;;8.95;4.20;;;10.70;99.90;;;;;;5074611;28;20048;-42
2023/04/18 08:55:34;;;;;;;7.13;3.47;;;10.80;99.90;;;;;;5075854;28;20206;-41
2023/04/18 08:58:00;;;;;;;;;;;10.80;99.90;;;;;;5075229;28;20080;-42
2023/04/18 09:00:26;;;;;;;5.15;3.00;;;10.90;99.90;;;;;;5075883;28;19978;-43
2023/04/18 09:02:55;;;;;;;8.52;3.47;;;11.00;99.90;;;;;;5074585;28;20091;-42
2023/04/18 09:05:23;;;;;;;8.80;3.45;;;11.00;99.90;;;;;;5075375;28;20044;-42
2023/04/18 09:07:51;;;;;;;8.13;3.85;;;11.00;99.90;;;;;;5075679;28;20127;-44
2023/04/18 09:10:47;;;;;;;8.60;2.95;;;11.00;99.90;;;;;;5074621;28;20049;-42
2023/04/18 09:13:12;;;;;;;6.25;3.15;;;11.10;99.90;;;;;;5065767;28;20052;-42
2023/04/18 09:15:39;;;;;;;7.33;3.73;;;11.10;99.90;;;;;;5075722;28;20495;-43
2023/04/18 09:18:09;;;;;;;7.38;3.55;;;11.10;99.90;;;;;;5091047;28;20053;-41
2023/04/18 09:20:43;;;;;;;7.57;3.38;;;11.20;99.90;;;;;;5074550;28;20051;-42
2023/04/18 09:23:13;;;;;;;7.35;3.70;;;11.30;99.90;;;;;;5075481;28;20057;-43
2023/04/18 09:25:45;;;;;;;6.65;2.88;;;11.40;99.90;;;;;;5075248;28;20049;-42
2023/04/18 09:28:25;;;;;;;5.47;2.88;;;11.40;99.90;;;;;;5074317;28;20048;-41
2023/04/18 09:30:52;;;;;;;6.70;3.65;;;11.50;99.90;;;;;;5074663;28;20052;-42
2023/04/18 09:33:27;;;;;;;6.07;3.50;;;11.40;99.90;;;;;;5074059;28;20052;-43
2023/04/18 09:35:54;;;;;;;5.05;2.55;;;11.40;99.90;;;;;;5074051;28;20131;-43
2023/04/18 09:38:19;;;;;;;;;;;11.40;99.90;;;;;;5074267;28;20052;-43
2023/04/18 09:40:45;;;;;;;6.20;3.47;;;11.40;99.90;;;;;;5075014;28;20279;-44
2023/04/18 09:43:18;;;;;;;6.77;3.07;;;11.50;99.90;;;;;;5074960;28;20070;-43
2023/04/18 09:45:47;;;;;;;6.15;3.17;;;11.50;99.90;;;;;;5073799;28;20044;-43
2023/04/18 09:48:13;;;;;;;5.88;3.00;;;11.50;99.90;;;;;;5073889;28;20052;-42
2023/04/18 09:50:40;;;;;;;6.03;3.22;;;11.50;99.90;;;;;;5074635;28;20056;-42
2023/04/18 09:53:07;;;;;;;6.97;3.15;;;11.50;99.90;;;;;;5074331;28;20583;-42
2023/04/18 09:55:33;;;;;;;6.28;3.20;;;11.60;99.90;;;;;;5073776;28;20475;-43
2023/04/18 09:58:02;;;;;;;8.55;3.55;;;11.60;99.90;;;;;;5073537;28;20410;-43
2023/04/18 10:00:29;;;;;;;6.07;2.90;;;11.60;99.90;;;;;;5073396;28;20059;-42
2023/04/18 10:03:03;;;;;;;7.45;3.45;;;11.70;99.90;;;;;;5073320;28;20097;-44
2023/04/18 10:05:38;;;;;;;8.27;3.15;;;11.70;99.90;;;;;;5074397;28;20044;-42
2023/04/18 10:08:05;;;;;;;5.57;3.15;;;11.80;99.90;;;;;;5073643;28;20064;-44
2023/04/18 10:10:31;;;;;;;6.00;2.85;;;11.90;99.90;;;;;;5074234;28;20544;-43
2023/04/18 10:13:00;;;;;;;5.63;2.78;;;12.00;99.90;;;;;;5072935;28;20127;-43
2023/04/18 10:15:28;;;;;;;6.05;3.30;;;12.10;99.90;;;;;;5074155;28;20055;-42
2023/04/18 10:17:56;;;;;;;8.05;3.25;;;12.20;99.90;;;;;;5073174;28;20044;-42
2023/04/18 10:20:24;;;;;;;6.13;2.83;;;12.20;99.90;;;;;;5073886;28;20117;-42
2023/04/18 10:22:51;;;;;;;6.35;3.47;;;12.30;99.90;;;;;;5073478;28;20131;-42
2023/04/18 10:25:35;;;;;;;4.57;2.58;;;12.40;99.90;;;;;;5073209;28;20048;-42
2023/04/18 10:28:02;;;;;;;6.28;3.15;;;12.50;99.90;;;;;;5072874;28;20056;-42
2023/04/18 10:30:40;;;;;;;5.70;3.20;;;12.50;99.90;;;;;;5072709;28;20070;-42
2023/04/18 10:33:22;;;;;;;7.97;3.15;;;12.60;99.90;;;;;;5073781;28;20053;-42
2023/04/18 10:36:22;;;;;;;5.63;2.78;;;12.70;99.90;;;;;;5073811;28;20403;-42
2023/04/18 10:38:52;;;;;;;6.40;2.90;;;12.80;99.90;;;;;;5072382;28;20052;-43
2023/04/18 10:41:25;;;;;;;5.75;3.03;;;12.80;99.90;;;;;;5072905;28;20049;-42
2023/04/18 10:44:08;;;;;;;5.97;3.25;;;12.80;99.90;;;;;;5073160;28;20048;-43
2023/04/18 10:46:39;;;;;;;5.72;2.92;;;12.80;99.90;;;;;;5073650;28;20045;-43
2023/04/18 10:49:27;;;;;;;5.75;3.33;;;12.90;99.90;;;;;;5073589;28;20044;-43
2023/04/18 10:51:57;;;;;;;6.25;2.97;;;13.00;99.90;;;;;;5073121;28;20399;-43
2023/04/18 10:54:41;;;;;;;6.93;3.20;;;13.20;99.90;;;;;;5072770;28;20049;-43
2023/04/18 10:57:07;;;;;;;6.15;2.78;;;13.20;99.90;;;;;;5072419;28;20049;-42
2023/04/18 10:59:37;;;;;;;6.38;3.03;;;13.20;99.90;;;;;;5072187;28;20124;-43
2023/04/18 11:02:18;;;;;;;5.00;2.90;;;13.20;99.90;;;;;;5072527;28;20136;-42
2023/04/18 11:04:49;;;;;;;7.22;2.92;;;13.20;99.90;;;;;;5072364;28;20041;-42
2023/04/18 11:07:15;;;;;;;5.30;2.88;;;13.20;99.90;;;;;;5072601;28;20502;-42
2023/04/18 11:09:41;;;;;;;5.17;2.50;;;13.20;99.90;;;;;;5073367;28;20056;-43
2023/04/18 11:12:10;;;;;;;4.63;2.30;;;13.20;99.90;;;;;;5073106;28;20067;-42
2023/04/18 11:14:39;;;;;;;4.38;2.08;;;13.10;99.90;;;;;;5072236;28;20060;-42
2023/04/18 11:17:15;;;;;;;5.30;2.55;;;13.10;99.90;;;;;;5073260;28;20040;-42
2023/04/18 11:19:41;;;;;;;7.25;2.90;;;13.20;99.90;;;;;;5073071;28;20048;-42
2023/04/18 11:22:07;;;;;;;5.97;2.42;;;13.20;99.90;;;;;;5072047;28;20056;-42
2023/04/18 11:24:33;;;;;;;6.23;2.40;;;13.30;99.90;;;;;;5073104;28;20067;-44
2023/04/18 11:26:59;;;;;;;4.73;2.00;;;13.30;99.90;;;;;;5072406;28;20298;-43
2023/04/18 11:29:26;;;;;;;5.38;2.65;;;13.40;99.90;;;;;;5072480;28;20056;-42
2023/04/18 11:31:52;;;;;;;4.47;2.17;;;13.50;99.90;;;;;;5073227;28;20123;-43
2023/04/18 11:34:18;;;;;;;4.15;2.00;;;13.60;99.90;;;;;;5073101;28;20067;-43
2023/04/18 11:36:51;;;;;;;4.65;2.20;;;13.70;99.90;;;;;;5073235;28;20052;-42
2023/04/18 11:39:17;;;;;;;5.20;2.35;;;13.80;99.90;;;;;;5073290;28;20048;-42
2023/04/18 11:41:49;;;;;;;4.63;2.22;;;13.90;99.90;;;;;;5055628;28;20052;-43
2023/04/18 11:44:24;;;;;;;4.05;1.98;;;14.00;99.90;;;;;;5072350;28;20052;-43
2023/04/18 11:46:53;;;;;;;4.85;2.10;;;14.00;99.90;;;;;;5072250;28;20051;-43
2023/04/18 11:49:32;;;;;;;4.72;2.45;;;13.90;99.90;;;;;;5073183;28;20147;-42
2023/04/18 11:52:00;;;;;;;4.88;2.00;;;14.00;99.90;;;;;;5071743;28;20049;-43
2023/04/18 11:54:40;;;;;;;3.50;1.80;;;14.00;99.90;;;;;;5076751;28;20049;-42
2023/04/18 11:57:22;;;;;;;4.32;1.73;;;14.20;99.90;;;;;;5076713;28;20149;-42
2023/04/18 11:59:49;;;;;;;4.22;1.65;;;14.30;99.90;;;;;;5076895;28;20084;-43
2023/04/18 12:02:15;;;;;;;4.57;1.98;;;14.40;99.90;;;;;;5059116;28;20135;-42
2023/04/18 12:04:52;;;;;;;4.10;1.80;;;14.30;99.90;;;;;;5076207;28;20282;-42
2023/04/18 12:07:32;;;;;;;3.55;1.40;;;14.40;99.90;;;;;;5075654;28;20073;-42
2023/04/18 12:09:57;;;;;;;2.83;1.40;;;14.50;99.90;;;;;;5058975;28;20048;-42
2023/04/18 12:12:23;;;;;;;2.75;1.38;;;14.50;99.90;;;;;;5076176;28;20498;-42
2023/04/18 12:14:57;;;;;;;3.63;1.13;;;14.50;99.90;;;;;;5075277;28;20036;-44
2023/04/18 12:17:26;;;;;;;4.38;1.60;;;14.50;99.90;;;;;;5076431;28;20283;-43
2023/04/18 12:19:54;;;;;;;4.22;1.90;;;14.40;99.90;;;;;;5075582;28;20052;-42
2023/04/18 12:22:36;;;;;;;6.00;2.08;;;14.30;99.90;;;;;;5058613;28;20143;-42
2023/04/18 12:25:20;;;;;;;4.03;1.60;;;14.30;99.90;;;;;;5076021;28;20051;-45
2023/04/18 12:28:13;;;;;;;4.00;1.70;;;14.10;99.90;;;;;;5076069;28;20049;-43
2023/04/18 12:30:39;;;;;;;3.08;1.33;;;13.90;99.90;;;;;;5058676;28;20055;-45
2023/04/18 12:33:05;;;;;;;4.93;1.77;;;14.00;99.90;;;;;;5074512;28;20403;-44
2023/04/18 12:35:31;;;;;;;3.67;1.95;;;14.10;99.90;;;;;;5058337;28;20052;-45
2023/04/18 12:37:59;;;;;;;3.97;1.60;;;14.30;99.90;;;;;;5058534;28;20399;-44
2023/04/18 12:40:26;;;;;;;4.05;1.95;;;14.50;99.90;;;;;;5074902;28;20479;-44
2023/04/18 12:42:52;;;;;;;;;;;14.60;99.90;;;;;;5076475;28;20356;-43
2023/04/18 12:45:20;;;;;;;3.92;1.88;;;14.60;99.90;;;;;;5058152;28;19920;-44
2023/04/18 12:47:47;;;;;;;4.07;1.90;;;14.60;99.90;;;;;;5074669;28;20180;-42
2023/04/18 12:50:18;;;;;;;3.72;1.45;;;14.40;99.90;;;;;;5075635;28;20044;-43
2023/04/18 12:52:44;;;;;;;3.47;1.63;;;14.30;99.90;;;;;;5075769;28;20048;-43
2023/04/18 12:55:10;;;;;;;4.05;1.80;;;14.30;99.90;;;;;;5074445;28;20036;-43